sensor_id;sensor_type;location;lat;lon;timestamp;P1;durP1;ratioP1;P2;durP2;ratioP2
43086;SDS011;28708;52.224;6.924;2023-08-12T00:02:05;16.30;;;9.47;;
43086;SDS011;28708;52.224;6.924;2023-08-12T00:04:31;19.10;;;9.57;;
43086;SDS011;28708;52.224;6.924;2023-08-12T00:06:57;15.97;;;9.00;;
43086;SDS011;28708;52.224;6.924;2023-08-12T00:09:22;20.50;;;9.53;;
43086;SDS011;28708;52.224;6.924;2023-08-12T00:11:48;15.67;;;9.50;;
43086;SDS011;28708;52.224;6.924;2023-08-12T00:14:14;12.90;;;9.90;;
43086;SDS011;28708;52.224;6.924;2023-08-12T00:16:39;14.93;;;9.67;;
43086;SDS011;28708;52.224;6.924;2023-08-12T00:19:05;17.70;;;10.33;;
43086;SDS011;28708;52.224;6.924;2023-08-12T00:21:31;18.40;;;10.23;;
43086;SDS011;28708;52.224;6.924;2023-08-12T00:23:56;22.37;;;10.20;;
43086;SDS011;28708;52.224;6.924;2023-08-12T00:26:22;19.27;;;11.10;;
43086;SDS011;28708;52.224;6.924;2023-08-12T00:28:48;19.53;;;11.33;;
43086;SDS011;28708;52.224;6.924;2023-08-12T00:31:15;15.77;;;10.43;;
43086;SDS011;28708;52.224;6.924;2023-08-12T00:33:41;20.17;;;11.20;;
43086;SDS011;28708;52.224;6.924;2023-08-12T00:36:06;19.50;;;12.07;;
43086;SDS011;28708;52.224;6.924;2023-08-12T00:38:32;21.63;;;12.33;;
43086;SDS011;28708;52.224;6.924;2023-08-12T00:40:58;18.97;;;11.83;;
43086;SDS011;28708;52.224;6.924;2023-08-12T00:43:23;18.90;;;11.00;;
43086;SDS011;28708;52.224;6.924;2023-08-12T00:45:49;21.40;;;12.10;;
43086;SDS011;28708;52.224;6.924;2023-08-12T00:48:15;27.40;;;14.03;;
43086;SDS011;28708;52.224;6.924;2023-08-12T00:50:42;24.40;;;14.13;;
43086;SDS011;28708;52.224;6.924;2023-08-12T00:53:08;19.63;;;13.20;;
43086;SDS011;28708;52.224;6.924;2023-08-12T00:55:35;22.17;;;13.23;;
43086;SDS011;28708;52.224;6.924;2023-08-12T00:58:02;21.57;;;13.60;;
43086;SDS011;28708;52.224;6.924;2023-08-12T01:00:28;25.20;;;14.90;;
43086;SDS011;28708;52.224;6.924;2023-08-12T01:02:54;25.43;;;14.67;;
43086;SDS011;28708;52.224;6.924;2023-08-12T01:05:22;22.03;;;14.53;;
43086;SDS011;28708;52.224;6.924;2023-08-12T01:07:48;23.10;;;13.50;;
43086;SDS011;28708;52.224;6.924;2023-08-12T01:10:13;21.53;;;13.90;;
43086;SDS011;28708;52.224;6.924;2023-08-12T01:12:44;23.57;;;14.87;;
43086;SDS011;28708;52.224;6.924;2023-08-12T01:15:20;21.10;;;14.57;;
43086;SDS011;28708;52.224;6.924;2023-08-12T01:17:48;24.08;;;14.30;;
43086;SDS011;28708;52.224;6.924;2023-08-12T01:20:17;21.67;;;13.45;;
43086;SDS011;28708;52.224;6.924;2023-08-12T01:23:10;24.63;;;14.03;;
43086;SDS011;28708;52.224;6.924;2023-08-12T01:25:38;20.93;;;14.33;;
43086;SDS011;28708;52.224;6.924;2023-08-12T01:28:04;24.87;;;14.60;;
43086;SDS011;28708;52.224;6.924;2023-08-12T01:30:30;23.97;;;13.10;;
43086;SDS011;28708;52.224;6.924;2023-08-12T01:33:00;22.67;;;14.83;;
43086;SDS011;28708;52.224;6.924;2023-08-12T01:35:35;25.13;;;14.97;;
43086;SDS011;28708;52.224;6.924;2023-08-12T01:38:05;20.13;;;13.73;;
43086;SDS011;28708;52.224;6.924;2023-08-12T01:40:33;21.27;;;13.97;;
43086;SDS011;28708;52.224;6.924;2023-08-12T01:43:00;21.43;;;15.03;;
43086;SDS011;28708;52.224;6.924;2023-08-12T01:45:30;23.33;;;16.00;;
43086;SDS011;28708;52.224;6.924;2023-08-12T01:47:57;26.57;;;16.33;;
43086;SDS011;28708;52.224;6.924;2023-08-12T01:50:23;23.57;;;15.03;;
43086;SDS011;28708;52.224;6.924;2023-08-12T01:52:49;22.83;;;14.67;;
43086;SDS011;28708;52.224;6.924;2023-08-12T01:55:15;22.30;;;14.77;;
43086;SDS011;28708;52.224;6.924;2023-08-12T01:57:40;24.07;;;14.73;;
43086;SDS011;28708;52.224;6.924;2023-08-12T02:00:06;19.03;;;14.00;;
43086;SDS011;28708;52.224;6.924;2023-08-12T02:02:42;18.53;;;12.37;;
43086;SDS011;28708;52.224;6.924;2023-08-12T02:05:11;18.33;;;12.60;;
43086;SDS011;28708;52.224;6.924;2023-08-12T02:07:36;22.33;;;13.63;;
43086;SDS011;28708;52.224;6.924;2023-08-12T02:10:02;20.20;;;13.30;;
43086;SDS011;28708;52.224;6.924;2023-08-12T02:12:30;20.77;;;14.50;;
43086;SDS011;28708;52.224;6.924;2023-08-12T02:14:56;23.37;;;14.70;;
43086;SDS011;28708;52.224;6.924;2023-08-12T02:17:22;18.83;;;12.57;;
43086;SDS011;28708;52.224;6.924;2023-08-12T02:19:50;20.60;;;13.33;;
43086;SDS011;28708;52.224;6.924;2023-08-12T02:22:16;16.93;;;12.33;;
43086;SDS011;28708;52.224;6.924;2023-08-12T02:24:42;21.23;;;13.13;;
43086;SDS011;28708;52.224;6.924;2023-08-12T02:27:07;20.07;;;13.00;;
43086;SDS011;28708;52.224;6.924;2023-08-12T02:29:33;17.03;;;11.73;;
43086;SDS011;28708;52.224;6.924;2023-08-12T02:31:59;17.27;;;12.23;;
43086;SDS011;28708;52.224;6.924;2023-08-12T02:34:25;18.47;;;12.97;;
43086;SDS011;28708;52.224;6.924;2023-08-12T02:36:50;22.53;;;13.90;;
43086;SDS011;28708;52.224;6.924;2023-08-12T02:39:16;20.80;;;13.40;;
43086;SDS011;28708;52.224;6.924;2023-08-12T02:41:42;20.73;;;13.57;;
43086;SDS011;28708;52.224;6.924;2023-08-12T02:44:08;20.57;;;14.00;;
43086;SDS011;28708;52.224;6.924;2023-08-12T02:46:33;20.73;;;13.63;;
43086;SDS011;28708;52.224;6.924;2023-08-12T02:48:59;21.70;;;14.63;;
43086;SDS011;28708;52.224;6.924;2023-08-12T02:51:25;22.20;;;15.07;;
43086;SDS011;28708;52.224;6.924;2023-08-12T02:53:50;23.30;;;15.47;;
43086;SDS011;28708;52.224;6.924;2023-08-12T02:56:16;20.03;;;15.20;;
43086;SDS011;28708;52.224;6.924;2023-08-12T02:58:42;22.87;;;15.70;;
43086;SDS011;28708;52.224;6.924;2023-08-12T03:01:08;23.77;;;17.03;;
43086;SDS011;28708;52.224;6.924;2023-08-12T03:03:33;21.43;;;15.23;;
43086;SDS011;28708;52.224;6.924;2023-08-12T03:05:59;22.07;;;16.23;;
43086;SDS011;28708;52.224;6.924;2023-08-12T03:08:27;20.17;;;15.60;;
43086;SDS011;28708;52.224;6.924;2023-08-12T03:11:02;21.93;;;15.13;;
43086;SDS011;28708;52.224;6.924;2023-08-12T03:13:29;21.33;;;15.70;;
43086;SDS011;28708;52.224;6.924;2023-08-12T03:15:56;20.67;;;16.50;;
43086;SDS011;28708;52.224;6.924;2023-08-12T03:18:22;20.30;;;16.00;;
43086;SDS011;28708;52.224;6.924;2023-08-12T03:20:48;20.40;;;15.30;;
43086;SDS011;28708;52.224;6.924;2023-08-12T03:23:14;21.87;;;15.90;;
43086;SDS011;28708;52.224;6.924;2023-08-12T03:25:41;20.20;;;16.37;;
43086;SDS011;28708;52.224;6.924;2023-08-12T03:28:09;18.53;;;14.40;;
43086;SDS011;28708;52.224;6.924;2023-08-12T03:30:36;19.30;;;15.20;;
43086;SDS011;28708;52.224;6.924;2023-08-12T03:33:02;19.33;;;14.47;;
43086;SDS011;28708;52.224;6.924;2023-08-12T03:35:31;20.10;;;14.40;;
43086;SDS011;28708;52.224;6.924;2023-08-12T03:37:57;17.10;;;13.70;;
43086;SDS011;28708;52.224;6.924;2023-08-12T03:40:23;20.37;;;15.30;;
43086;SDS011;28708;52.224;6.924;2023-08-12T03:42:48;18.67;;;14.97;;
43086;SDS011;28708;52.224;6.924;2023-08-12T03:45:16;22.40;;;15.27;;
43086;SDS011;28708;52.224;6.924;2023-08-12T03:47:42;20.00;;;15.07;;
43086;SDS011;28708;52.224;6.924;2023-08-12T03:50:08;23.97;;;14.37;;
43086;SDS011;28708;52.224;6.924;2023-08-12T03:52:34;20.90;;;14.90;;
43086;SDS011;28708;52.224;6.924;2023-08-12T03:55:00;20.40;;;15.50;;
43086;SDS011;28708;52.224;6.924;2023-08-12T03:57:26;22.07;;;14.93;;
43086;SDS011;28708;52.224;6.924;2023-08-12T03:59:52;19.93;;;15.70;;
43086;SDS011;28708;52.224;6.924;2023-08-12T04:02:18;26.27;;;16.60;;
43086;SDS011;28708;52.224;6.924;2023-08-12T04:04:43;21.33;;;15.33;;
43086;SDS011;28708;52.224;6.924;2023-08-12T04:07:09;23.17;;;15.80;;
43086;SDS011;28708;52.224;6.924;2023-08-12T04:09:35;20.30;;;14.27;;
43086;SDS011;28708;52.224;6.924;2023-08-12T04:12:00;22.73;;;14.90;;
43086;SDS011;28708;52.224;6.924;2023-08-12T04:14:27;19.87;;;14.10;;
43086;SDS011;28708;52.224;6.924;2023-08-12T04:16:52;20.90;;;14.37;;
43086;SDS011;28708;52.224;6.924;2023-08-12T04:19:18;26.27;;;15.57;;
43086;SDS011;28708;52.224;6.924;2023-08-12T04:21:43;22.10;;;15.00;;
43086;SDS011;28708;52.224;6.924;2023-08-12T04:24:11;24.90;;;14.00;;
43086;SDS011;28708;52.224;6.924;2023-08-12T04:26:38;20.57;;;13.97;;
43086;SDS011;28708;52.224;6.924;2023-08-12T04:29:04;21.53;;;13.33;;
43086;SDS011;28708;52.224;6.924;2023-08-12T04:31:30;20.07;;;14.33;;
43086;SDS011;28708;52.224;6.924;2023-08-12T04:33:56;24.57;;;15.03;;
43086;SDS011;28708;52.224;6.924;2023-08-12T04:36:24;21.20;;;14.23;;
43086;SDS011;28708;52.224;6.924;2023-08-12T04:38:49;22.83;;;13.87;;
43086;SDS011;28708;52.224;6.924;2023-08-12T04:41:15;18.80;;;13.90;;
43086;SDS011;28708;52.224;6.924;2023-08-12T04:43:42;19.53;;;13.27;;
43086;SDS011;28708;52.224;6.924;2023-08-12T04:46:08;17.93;;;11.60;;
43086;SDS011;28708;52.224;6.924;2023-08-12T04:48:35;16.90;;;12.33;;
43086;SDS011;28708;52.224;6.924;2023-08-12T04:51:00;18.50;;;12.90;;
43086;SDS011;28708;52.224;6.924;2023-08-12T04:53:28;22.80;;;13.97;;
43086;SDS011;28708;52.224;6.924;2023-08-12T04:55:55;21.27;;;13.53;;
43086;SDS011;28708;52.224;6.924;2023-08-12T04:58:21;20.67;;;13.50;;
43086;SDS011;28708;52.224;6.924;2023-08-12T05:00:48;22.37;;;13.40;;
43086;SDS011;28708;52.224;6.924;2023-08-12T05:03:13;20.83;;;14.60;;
43086;SDS011;28708;52.224;6.924;2023-08-12T05:05:39;19.00;;;13.87;;
43086;SDS011;28708;52.224;6.924;2023-08-12T05:08:06;22.43;;;13.63;;
43086;SDS011;28708;52.224;6.924;2023-08-12T05:10:33;19.80;;;13.73;;
43086;SDS011;28708;52.224;6.924;2023-08-12T05:12:59;23.33;;;13.43;;
43086;SDS011;28708;52.224;6.924;2023-08-12T05:15:25;25.90;;;13.57;;
43086;SDS011;28708;52.224;6.924;2023-08-12T05:17:51;16.10;;;12.83;;
43086;SDS011;28708;52.224;6.924;2023-08-12T05:20:20;18.90;;;12.17;;
43086;SDS011;28708;52.224;6.924;2023-08-12T05:22:46;20.47;;;12.47;;
43086;SDS011;28708;52.224;6.924;2023-08-12T05:25:11;22.33;;;12.40;;
43086;SDS011;28708;52.224;6.924;2023-08-12T05:27:37;19.77;;;11.83;;
43086;SDS011;28708;52.224;6.924;2023-08-12T05:30:03;20.20;;;13.80;;
43086;SDS011;28708;52.224;6.924;2023-08-12T05:32:29;17.17;;;11.30;;
43086;SDS011;28708;52.224;6.924;2023-08-12T05:34:55;19.40;;;13.70;;
43086;SDS011;28708;52.224;6.924;2023-08-12T05:37:21;19.27;;;11.77;;
43086;SDS011;28708;52.224;6.924;2023-08-12T05:39:46;17.77;;;11.40;;
43086;SDS011;28708;52.224;6.924;2023-08-12T05:42:12;21.77;;;11.13;;
43086;SDS011;28708;52.224;6.924;2023-08-12T05:44:40;19.73;;;11.53;;
43086;SDS011;28708;52.224;6.924;2023-08-12T05:47:07;19.98;;;11.75;;
43086;SDS011;28708;52.224;6.924;2023-08-12T05:49:33;24.13;;;11.63;;
43086;SDS011;28708;52.224;6.924;2023-08-12T05:51:58;16.53;;;10.80;;
43086;SDS011;28708;52.224;6.924;2023-08-12T05:54:24;21.00;;;11.60;;
43086;SDS011;28708;52.224;6.924;2023-08-12T05:57:03;16.63;;;11.27;;
43086;SDS011;28708;52.224;6.924;2023-08-12T05:59:49;20.80;;;11.93;;
43086;SDS011;28708;52.224;6.924;2023-08-12T06:05:30;18.95;;;10.70;;
43086;SDS011;28708;52.224;6.924;2023-08-12T06:07:56;24.45;;;10.35;;
43086;SDS011;28708;52.224;6.924;2023-08-12T06:10:21;18.15;;;9.52;;
43086;SDS011;28708;52.224;6.924;2023-08-12T06:12:47;16.33;;;8.98;;
43086;SDS011;28708;52.224;6.924;2023-08-12T06:15:13;14.75;;;9.30;;
43086;SDS011;28708;52.224;6.924;2023-08-12T06:17:38;13.20;;;8.30;;
43086;SDS011;28708;52.224;6.924;2023-08-12T06:20:04;14.05;;;9.13;;
43086;SDS011;28708;52.224;6.924;2023-08-12T06:22:31;16.77;;;8.20;;
43086;SDS011;28708;52.224;6.924;2023-08-12T06:24:56;13.43;;;8.43;;
43086;SDS011;28708;52.224;6.924;2023-08-12T06:27:22;17.33;;;9.13;;
43086;SDS011;28708;52.224;6.924;2023-08-12T06:29:48;16.88;;;9.75;;
43086;SDS011;28708;52.224;6.924;2023-08-12T06:32:14;14.05;;;8.93;;
43086;SDS011;28708;52.224;6.924;2023-08-12T06:34:40;13.68;;;9.18;;
43086;SDS011;28708;52.224;6.924;2023-08-12T06:37:06;20.92;;;10.02;;
43086;SDS011;28708;52.224;6.924;2023-08-12T06:39:31;16.63;;;9.32;;
43086;SDS011;28708;52.224;6.924;2023-08-12T06:41:57;11.85;;;8.68;;
43086;SDS011;28708;52.224;6.924;2023-08-12T06:44:24;18.45;;;9.70;;
43086;SDS011;28708;52.224;6.924;2023-08-12T06:46:50;17.47;;;9.50;;
43086;SDS011;28708;52.224;6.924;2023-08-12T06:49:15;21.57;;;10.43;;
43086;SDS011;28708;52.224;6.924;2023-08-12T06:51:41;17.00;;;10.60;;
43086;SDS011;28708;52.224;6.924;2023-08-12T06:54:07;20.27;;;10.63;;
43086;SDS011;28708;52.224;6.924;2023-08-12T06:56:32;19.63;;;13.20;;
43086;SDS011;28708;52.224;6.924;2023-08-12T06:58:58;24.90;;;11.70;;
43086;SDS011;28708;52.224;6.924;2023-08-12T07:01:24;26.40;;;13.60;;
43086;SDS011;28708;52.224;6.924;2023-08-12T07:03:49;25.73;;;14.87;;
43086;SDS011;28708;52.224;6.924;2023-08-12T07:06:15;22.83;;;14.40;;
43086;SDS011;28708;52.224;6.924;2023-08-12T07:08:41;25.40;;;16.43;;
43086;SDS011;28708;52.224;6.924;2023-08-12T07:11:07;24.20;;;15.90;;
43086;SDS011;28708;52.224;6.924;2023-08-12T07:13:34;30.30;;;19.30;;
43086;SDS011;28708;52.224;6.924;2023-08-12T07:16:00;25.77;;;18.33;;
43086;SDS011;28708;52.224;6.924;2023-08-12T07:18:26;26.60;;;17.67;;
43086;SDS011;28708;52.224;6.924;2023-08-12T07:20:52;30.37;;;18.90;;
43086;SDS011;28708;52.224;6.924;2023-08-12T07:23:17;29.37;;;20.17;;
43086;SDS011;28708;52.224;6.924;2023-08-12T07:25:45;31.90;;;20.73;;
43086;SDS011;28708;52.224;6.924;2023-08-12T07:28:12;34.07;;;21.50;;
43086;SDS011;28708;52.224;6.924;2023-08-12T07:30:37;26.50;;;18.17;;
43086;SDS011;28708;52.224;6.924;2023-08-12T07:33:03;32.07;;;21.43;;
43086;SDS011;28708;52.224;6.924;2023-08-12T07:35:30;33.63;;;21.87;;
43086;SDS011;28708;52.224;6.924;2023-08-12T07:37:55;32.47;;;20.70;;
43086;SDS011;28708;52.224;6.924;2023-08-12T07:40:21;29.93;;;19.87;;
43086;SDS011;28708;52.224;6.924;2023-08-12T07:42:47;36.83;;;22.80;;
43086;SDS011;28708;52.224;6.924;2023-08-12T07:45:13;31.50;;;21.10;;
43086;SDS011;28708;52.224;6.924;2023-08-12T07:47:39;36.37;;;23.47;;
43086;SDS011;28708;52.224;6.924;2023-08-12T07:50:05;31.87;;;22.80;;
43086;SDS011;28708;52.224;6.924;2023-08-12T07:52:31;32.37;;;21.10;;
43086;SDS011;28708;52.224;6.924;2023-08-12T07:54:57;30.53;;;21.20;;
43086;SDS011;28708;52.224;6.924;2023-08-12T07:57:22;28.03;;;19.17;;
43086;SDS011;28708;52.224;6.924;2023-08-12T07:59:52;31.03;;;20.70;;
43086;SDS011;28708;52.224;6.924;2023-08-12T08:02:18;30.90;;;21.80;;
43086;SDS011;28708;52.224;6.924;2023-08-12T08:04:44;32.43;;;21.43;;
43086;SDS011;28708;52.224;6.924;2023-08-12T08:07:10;32.40;;;22.53;;
43086;SDS011;28708;52.224;6.924;2023-08-12T08:09:36;34.00;;;21.23;;
43086;SDS011;28708;52.224;6.924;2023-08-12T08:12:02;34.47;;;22.57;;
43086;SDS011;28708;52.224;6.924;2023-08-12T08:14:29;29.70;;;19.70;;
43086;SDS011;28708;52.224;6.924;2023-08-12T08:16:55;34.63;;;22.07;;
43086;SDS011;28708;52.224;6.924;2023-08-12T08:19:20;33.23;;;20.97;;
43086;SDS011;28708;52.224;6.924;2023-08-12T08:21:46;30.80;;;19.57;;
43086;SDS011;28708;52.224;6.924;2023-08-12T08:24:12;34.03;;;18.60;;
43086;SDS011;28708;52.224;6.924;2023-08-12T08:26:40;28.57;;;17.90;;
43086;SDS011;28708;52.224;6.924;2023-08-12T08:29:06;32.03;;;18.90;;
43086;SDS011;28708;52.224;6.924;2023-08-12T08:31:32;26.97;;;18.07;;
43086;SDS011;28708;52.224;6.924;2023-08-12T08:33:58;32.03;;;18.67;;
43086;SDS011;28708;52.224;6.924;2023-08-12T08:36:24;31.93;;;17.93;;
43086;SDS011;28708;52.224;6.924;2023-08-12T08:38:49;26.97;;;17.80;;
43086;SDS011;28708;52.224;6.924;2023-08-12T08:41:16;23.93;;;15.97;;
43086;SDS011;28708;52.224;6.924;2023-08-12T08:43:42;21.83;;;14.90;;
43086;SDS011;28708;52.224;6.924;2023-08-12T08:46:12;24.02;;;15.68;;
43086;SDS011;28708;52.224;6.924;2023-08-12T08:48:43;24.95;;;13.95;;
43086;SDS011;28708;52.224;6.924;2023-08-12T08:51:10;20.97;;;12.37;;
43086;SDS011;28708;52.224;6.924;2023-08-12T08:53:40;17.73;;;11.40;;
43086;SDS011;28708;52.224;6.924;2023-08-12T08:56:07;22.20;;;12.68;;
43086;SDS011;28708;52.224;6.924;2023-08-12T09:01:02;17.13;;;9.20;;
43086;SDS011;28708;52.224;6.924;2023-08-12T09:03:28;18.20;;;10.30;;
43086;SDS011;28708;52.224;6.924;2023-08-12T09:05:56;17.77;;;10.47;;
43086;SDS011;28708;52.224;6.924;2023-08-12T09:08:23;13.67;;;9.37;;
43086;SDS011;28708;52.224;6.924;2023-08-12T09:10:50;14.27;;;9.70;;
43086;SDS011;28708;52.224;6.924;2023-08-12T09:13:20;13.35;;;8.93;;
43086;SDS011;28708;52.224;6.924;2023-08-12T09:15:45;13.57;;;9.90;;
43086;SDS011;28708;52.224;6.924;2023-08-12T09:18:11;15.30;;;10.20;;
43086;SDS011;28708;52.224;6.924;2023-08-12T09:20:37;14.53;;;10.57;;
43086;SDS011;28708;52.224;6.924;2023-08-12T09:23:03;14.57;;;10.80;;
43086;SDS011;28708;52.224;6.924;2023-08-12T09:25:29;14.03;;;10.40;;
43086;SDS011;28708;52.224;6.924;2023-08-12T09:27:55;14.67;;;10.43;;
43086;SDS011;28708;52.224;6.924;2023-08-12T09:30:25;16.52;;;9.98;;
43086;SDS011;28708;52.224;6.924;2023-08-12T09:33:01;14.18;;;10.27;;
43086;SDS011;28708;52.224;6.924;2023-08-12T09:35:32;10.80;;;9.23;;
43086;SDS011;28708;52.224;6.924;2023-08-12T09:37:59;9.97;;;8.50;;
43086;SDS011;28708;52.224;6.924;2023-08-12T09:40:26;9.43;;;7.63;;
43086;SDS011;28708;52.224;6.924;2023-08-12T09:42:52;10.90;;;7.30;;
43086;SDS011;28708;52.224;6.924;2023-08-12T09:45:18;12.10;;;6.97;;
43086;SDS011;28708;52.224;6.924;2023-08-12T09:47:46;8.90;;;5.90;;
43086;SDS011;28708;52.224;6.924;2023-08-12T09:50:12;8.17;;;6.30;;
43086;SDS011;28708;52.224;6.924;2023-08-12T09:52:39;7.70;;;5.37;;
43086;SDS011;28708;52.224;6.924;2023-08-12T09:55:05;6.73;;;5.50;;
43086;SDS011;28708;52.224;6.924;2023-08-12T09:57:33;7.77;;;5.87;;
43086;SDS011;28708;52.224;6.924;2023-08-12T10:00:05;6.65;;;5.32;;
43086;SDS011;28708;52.224;6.924;2023-08-12T10:02:39;5.40;;;4.47;;
43086;SDS011;28708;52.224;6.924;2023-08-12T10:05:16;6.80;;;5.30;;
43086;SDS011;28708;52.224;6.924;2023-08-12T10:07:52;5.20;;;4.68;;
43086;SDS011;28708;52.224;6.924;2023-08-12T10:10:21;5.15;;;4.22;;
43086;SDS011;28708;52.224;6.924;2023-08-12T10:12:50;5.73;;;4.07;;
43086;SDS011;28708;52.224;6.924;2023-08-12T10:15:16;4.87;;;4.00;;
43086;SDS011;28708;52.224;6.924;2023-08-12T10:17:42;3.45;;;2.88;;
43086;SDS011;28708;52.224;6.924;2023-08-12T10:20:11;3.90;;;3.30;;
43086;SDS011;28708;52.224;6.924;2023-08-12T10:22:38;4.60;;;3.42;;
43086;SDS011;28708;52.224;6.924;2023-08-12T10:25:05;4.78;;;3.17;;
43086;SDS011;28708;52.224;6.924;2023-08-12T10:27:34;3.97;;;3.20;;
43086;SDS011;28708;52.224;6.924;2023-08-12T10:30:02;3.23;;;2.60;;
43086;SDS011;28708;52.224;6.924;2023-08-12T10:32:30;3.20;;;2.90;;
43086;SDS011;28708;52.224;6.924;2023-08-12T10:34:57;4.50;;;2.90;;
43086;SDS011;28708;52.224;6.924;2023-08-12T10:37:26;3.47;;;2.50;;
43086;SDS011;28708;52.224;6.924;2023-08-12T10:39:53;4.40;;;2.83;;
43086;SDS011;28708;52.224;6.924;2023-08-12T10:45:08;6.63;;;3.30;;
43086;SDS011;28708;52.224;6.924;2023-08-12T10:47:41;3.50;;;2.90;;
43086;SDS011;28708;52.224;6.924;2023-08-12T10:50:27;3.40;;;3.10;;
43086;SDS011;28708;52.224;6.924;2023-08-12T10:52:55;3.90;;;2.53;;
43086;SDS011;28708;52.224;6.924;2023-08-12T10:55:22;5.30;;;3.50;;
43086;SDS011;28708;52.224;6.924;2023-08-12T10:57:50;3.30;;;3.00;;
43086;SDS011;28708;52.224;6.924;2023-08-12T11:00:17;3.95;;;2.85;;
43086;SDS011;28708;52.224;6.924;2023-08-12T11:02:52;4.82;;;2.80;;
43086;SDS011;28708;52.224;6.924;2023-08-12T11:05:19;3.70;;;3.08;;
43086;SDS011;28708;52.224;6.924;2023-08-12T11:07:56;5.03;;;3.20;;
43086;SDS011;28708;52.224;6.924;2023-08-12T11:10:24;5.32;;;3.22;;
43086;SDS011;28708;52.224;6.924;2023-08-12T11:15:17;4.20;;;3.53;;
43086;SDS011;28708;52.224;6.924;2023-08-12T11:17:45;6.03;;;3.83;;
43086;SDS011;28708;52.224;6.924;2023-08-12T11:20:12;4.97;;;4.07;;
43086;SDS011;28708;52.224;6.924;2023-08-12T11:22:42;3.50;;;3.03;;
43086;SDS011;28708;52.224;6.924;2023-08-12T11:25:10;3.60;;;3.03;;
43086;SDS011;28708;52.224;6.924;2023-08-12T11:27:38;4.80;;;3.10;;
43086;SDS011;28708;52.224;6.924;2023-08-12T11:30:09;3.78;;;3.15;;
43086;SDS011;28708;52.224;6.924;2023-08-12T11:32:37;4.80;;;2.75;;
43086;SDS011;28708;52.224;6.924;2023-08-12T11:35:04;2.85;;;2.40;;
43086;SDS011;28708;52.224;6.924;2023-08-12T11:37:31;2.75;;;2.22;;
43086;SDS011;28708;52.224;6.924;2023-08-12T11:39:57;2.70;;;2.22;;
43086;SDS011;28708;52.224;6.924;2023-08-12T11:42:23;2.67;;;2.00;;
43086;SDS011;28708;52.224;6.924;2023-08-12T11:44:49;2.63;;;2.00;;
43086;SDS011;28708;52.224;6.924;2023-08-12T11:47:14;4.72;;;1.90;;
43086;SDS011;28708;52.224;6.924;2023-08-12T11:49:40;2.53;;;1.85;;
43086;SDS011;28708;52.224;6.924;2023-08-12T11:52:06;3.20;;;1.25;;
43086;SDS011;28708;52.224;6.924;2023-08-12T11:54:33;2.42;;;1.35;;
43086;SDS011;28708;52.224;6.924;2023-08-12T11:56:59;3.20;;;1.42;;
43086;SDS011;28708;52.224;6.924;2023-08-12T11:59:25;1.55;;;1.30;;
43086;SDS011;28708;52.224;6.924;2023-08-12T12:01:51;2.65;;;1.17;;
43086;SDS011;28708;52.224;6.924;2023-08-12T12:04:17;2.95;;;1.30;;
43086;SDS011;28708;52.224;6.924;2023-08-12T12:06:46;1.52;;;1.15;;
43086;SDS011;28708;52.224;6.924;2023-08-12T12:09:13;1.63;;;1.30;;
43086;SDS011;28708;52.224;6.924;2023-08-12T12:11:39;2.88;;;1.20;;
43086;SDS011;28708;52.224;6.924;2023-08-12T12:14:06;1.73;;;0.90;;
43086;SDS011;28708;52.224;6.924;2023-08-12T12:16:40;3.95;;;0.65;;
43086;SDS011;28708;52.224;6.924;2023-08-12T12:19:17;2.35;;;0.77;;
43086;SDS011;28708;52.224;6.924;2023-08-12T12:21:45;1.08;;;0.77;;
43086;SDS011;28708;52.224;6.924;2023-08-12T12:24:12;1.50;;;0.90;;
43086;SDS011;28708;52.224;6.924;2023-08-12T12:26:38;0.93;;;0.65;;
43086;SDS011;28708;52.224;6.924;2023-08-12T12:29:04;1.73;;;0.80;;
43086;SDS011;28708;52.224;6.924;2023-08-12T12:31:34;1.55;;;0.82;;
43086;SDS011;28708;52.224;6.924;2023-08-12T12:34:01;1.15;;;0.80;;
43086;SDS011;28708;52.224;6.924;2023-08-12T12:36:29;1.08;;;0.70;;
43086;SDS011;28708;52.224;6.924;2023-08-12T12:38:55;0.65;;;0.38;;
43086;SDS011;28708;52.224;6.924;2023-08-12T12:41:21;2.42;;;0.80;;
43086;SDS011;28708;52.224;6.924;2023-08-12T12:43:46;1.20;;;0.52;;
43086;SDS011;28708;52.224;6.924;2023-08-12T12:46:12;1.70;;;0.55;;
43086;SDS011;28708;52.224;6.924;2023-08-12T12:48:38;3.13;;;0.77;;
43086;SDS011;28708;52.224;6.924;2023-08-12T12:51:04;1.00;;;0.70;;
43086;SDS011;28708;52.224;6.924;2023-08-12T12:53:30;1.25;;;0.63;;
43086;SDS011;28708;52.224;6.924;2023-08-12T12:55:55;1.92;;;0.88;;
43086;SDS011;28708;52.224;6.924;2023-08-12T12:58:23;2.55;;;0.60;;
43086;SDS011;28708;52.224;6.924;2023-08-12T13:00:49;1.20;;;0.80;;
43086;SDS011;28708;52.224;6.924;2023-08-12T13:03:14;2.17;;;1.15;;
43086;SDS011;28708;52.224;6.924;2023-08-12T13:05:40;1.38;;;1.00;;
43086;SDS011;28708;52.224;6.924;2023-08-12T13:08:06;1.80;;;1.05;;
43086;SDS011;28708;52.224;6.924;2023-08-12T13:10:31;1.27;;;0.82;;
43086;SDS011;28708;52.224;6.924;2023-08-12T13:12:57;1.58;;;0.85;;
43086;SDS011;28708;52.224;6.924;2023-08-12T13:15:23;1.55;;;0.70;;
43086;SDS011;28708;52.224;6.924;2023-08-12T13:17:50;1.52;;;0.90;;
43086;SDS011;28708;52.224;6.924;2023-08-12T13:20:16;2.00;;;1.08;;
43086;SDS011;28708;52.224;6.924;2023-08-12T13:22:41;2.35;;;1.25;;
43086;SDS011;28708;52.224;6.924;2023-08-12T13:25:07;2.47;;;1.10;;
43086;SDS011;28708;52.224;6.924;2023-08-12T13:27:33;3.95;;;1.27;;
43086;SDS011;28708;52.224;6.924;2023-08-12T13:29:58;1.73;;;0.75;;
43086;SDS011;28708;52.224;6.924;2023-08-12T13:32:24;1.80;;;1.00;;
43086;SDS011;28708;52.224;6.924;2023-08-12T13:34:50;1.98;;;0.88;;
43086;SDS011;28708;52.224;6.924;2023-08-12T13:37:15;2.88;;;1.20;;
43086;SDS011;28708;52.224;6.924;2023-08-12T13:39:41;2.60;;;1.27;;
43086;SDS011;28708;52.224;6.924;2023-08-12T13:42:07;4.50;;;2.20;;
43086;SDS011;28708;52.224;6.924;2023-08-12T13:44:32;6.60;;;2.22;;
43086;SDS011;28708;52.224;6.924;2023-08-12T13:46:58;4.95;;;1.60;;
43086;SDS011;28708;52.224;6.924;2023-08-12T13:49:24;3.60;;;1.30;;
43086;SDS011;28708;52.224;6.924;2023-08-12T13:51:50;4.88;;;1.33;;
43086;SDS011;28708;52.224;6.924;2023-08-12T13:54:15;5.82;;;1.75;;
43086;SDS011;28708;52.224;6.924;2023-08-12T13:56:41;3.28;;;1.20;;
43086;SDS011;28708;52.224;6.924;2023-08-12T13:59:06;3.45;;;1.23;;
43086;SDS011;28708;52.224;6.924;2023-08-12T14:01:32;4.95;;;1.60;;
43086;SDS011;28708;52.224;6.924;2023-08-12T14:03:58;4.22;;;1.35;;
43086;SDS011;28708;52.224;6.924;2023-08-12T14:06:23;3.40;;;1.50;;
43086;SDS011;28708;52.224;6.924;2023-08-12T14:08:49;4.60;;;1.40;;
43086;SDS011;28708;52.224;6.924;2023-08-12T14:11:15;7.97;;;1.58;;
43086;SDS011;28708;52.224;6.924;2023-08-12T14:13:40;3.58;;;1.40;;
43086;SDS011;28708;52.224;6.924;2023-08-12T14:16:06;4.68;;;1.40;;
43086;SDS011;28708;52.224;6.924;2023-08-12T14:18:32;4.28;;;1.38;;
43086;SDS011;28708;52.224;6.924;2023-08-12T14:20:57;6.22;;;1.73;;
43086;SDS011;28708;52.224;6.924;2023-08-12T14:23:23;4.60;;;1.63;;
43086;SDS011;28708;52.224;6.924;2023-08-12T14:25:48;3.92;;;1.30;;
43086;SDS011;28708;52.224;6.924;2023-08-12T14:28:14;6.88;;;1.77;;
43086;SDS011;28708;52.224;6.924;2023-08-12T14:30:40;6.95;;;1.80;;
43086;SDS011;28708;52.224;6.924;2023-08-12T14:33:06;7.15;;;1.80;;
43086;SDS011;28708;52.224;6.924;2023-08-12T14:35:33;4.97;;;1.77;;
43086;SDS011;28708;52.224;6.924;2023-08-12T14:37:59;3.95;;;1.50;;
43086;SDS011;28708;52.224;6.924;2023-08-12T14:40:25;6.68;;;2.08;;